createdAt,value
2023-06-17T04:03:09.296Z,0.8
2023-06-17T04:15:20.889Z,1.1
2023-06-17T04:30:20.095Z,1.7
2023-06-17T04:45:20.570Z,2.1
2023-06-17T05:00:22.474Z,2.3
2023-06-17T05:15:24.756Z,2.5
2023-06-17T05:30:21.011Z,2.8
2023-06-17T05:45:20.904Z,3.9
2023-06-17T06:00:30.223Z,5.1
2023-06-17T06:15:20.499Z,6.1
2023-06-17T06:30:22.577Z,5
2023-06-17T06:45:20.704Z,6.6
2023-06-17T07:00:20.231Z,5.1
2023-06-17T07:15:20.027Z,5.7
2023-06-17T07:30:20.593Z,7.2
2023-06-17T07:45:19.823Z,10.1
2023-06-17T08:00:21.097Z,13.6
2023-06-17T08:15:19.951Z,18.4
2023-06-17T08:30:20.144Z,17.8
2023-06-17T08:45:20.576Z,19.2
2023-06-17T09:00:21.089Z,20.4
2023-06-17T09:15:20.322Z,20.4
2023-06-17T09:30:20.808Z,19.8
2023-06-17T09:45:20.197Z,19.2
2023-06-17T10:00:25.472Z,20
2023-06-17T10:15:28.996Z,20.2
2023-06-17T10:30:22.146Z,20.9
2023-06-17T10:45:19.778Z,20
2023-06-17T11:00:21.013Z,20.1
2023-06-17T11:15:20.008Z,20
2023-06-17T11:30:20.540Z,21.1
2023-06-17T11:45:20.201Z,21.1
2023-06-17T12:00:20.211Z,24.3
2023-06-17T12:15:35.508Z,24
2023-06-17T12:30:20.237Z,17.3
2023-06-17T12:45:20.180Z,20.4
2023-06-17T13:00:20.069Z,14
2023-06-17T13:15:20.454Z,14.2
2023-06-17T13:30:21.258Z,15
2023-06-17T13:45:20.368Z,34.1
2023-06-17T14:00:20.842Z,56.8
2023-06-17T14:15:20.277Z,33.4
2023-06-17T14:30:20.846Z,21.6
2023-06-17T14:45:20.513Z,93.2
2023-06-17T15:00:20.626Z,101.1
2023-06-17T15:15:20.959Z,72.8
2023-06-17T15:30:20.699Z,61.9
2023-06-17T15:45:20.595Z,15.1
2023-06-17T16:00:20.382Z,13
2023-06-17T16:15:41.941Z,82.7
2023-06-17T16:30:20.237Z,55.7
2023-06-17T16:45:20.078Z,13.6
2023-06-17T17:00:20.423Z,14.2
2023-06-17T17:15:20.240Z,17.8
2023-06-17T17:30:20.472Z,12.7
2023-06-17T17:45:19.874Z,4.2
2023-06-17T18:00:20.616Z,5.8
2023-06-17T18:15:19.874Z,8.5
2023-06-17T18:30:19.839Z,8.3
2023-06-17T18:45:20.260Z,6.1
2023-06-17T19:00:21.123Z,2.8
2023-06-17T19:15:20.147Z,2.5
2023-06-17T19:30:20.263Z,1.7
2023-06-17T19:45:20.072Z,0.8
2023-06-17T20:00:21.013Z,0.8
2023-06-17T20:15:20.422Z,0.8
2023-06-17T20:30:20.430Z,0.8
